Terminal Aerodrome Forecast
Issued by NWS Cleveland, OH

Home | Current Version | Previous Version | Graphics & Text | Print | Product List | Glossary On
Versions: 1 2 3 4 5 6 7 8 9 10 11 12 13 14 15 16 17 18 19 20
000
FTUS41 KCLE 310300 AAA
TAFCAK
TAF AMD
KCAK 310343Z 3104/3124 24005KT P6SM BKN080 OVC250
     FM310600 18008KT P6SM BKN045 OVC080 WS020/24040KT
      TEMPO 3106/3110 -SHRA OVC045
     FM311100 22012G20KT P6SM BKN030 OVC080
     FM311500 32012G20KT P6SM BKN035
     FM312200 34007KT P6SM BKN060=

USA.gov is the U.S. government's official web portal to all federal, state and local government web resources and services.